createdAt,value
2018-04-12T00:00:07.709Z,26.13
2018-04-12T00:02:35.176Z,26.03
2018-04-12T00:05:02.656Z,24.87
2018-04-12T00:07:30.124Z,24.23
2018-04-12T00:09:58.393Z,25.77
2018-04-12T00:12:25.853Z,23.80
2018-04-12T00:14:53.306Z,24.67
2018-04-12T00:17:20.768Z,26.00
2018-04-12T00:19:48.231Z,24.43
2018-04-12T00:22:15.698Z,25.43
2018-04-12T00:24:43.154Z,24.93
2018-04-12T00:27:10.633Z,24.27
2018-04-12T00:29:38.090Z,25.50
2018-04-12T00:32:05.546Z,25.20
2018-04-12T00:34:33.020Z,25.83
2018-04-12T00:37:00.485Z,25.33
2018-04-12T00:39:27.948Z,25.30
2018-04-12T00:41:55.427Z,24.83
2018-04-12T00:44:23.661Z,24.70
2018-04-12T00:46:51.122Z,25.23
2018-04-12T00:49:19.361Z,24.47
2018-04-12T00:51:47.589Z,24.13
2018-04-12T00:54:15.056Z,24.30
2018-04-12T00:56:42.524Z,25.13
2018-04-12T00:59:09.998Z,25.13
2018-04-12T01:01:37.458Z,24.33
2018-04-12T01:04:04.927Z,25.30
2018-04-12T01:06:32.388Z,25.67
2018-04-12T01:08:59.876Z,25.73
2018-04-12T01:11:28.101Z,24.53
2018-04-12T01:13:55.558Z,24.70
2018-04-12T01:16:23.034Z,25.03
2018-04-12T01:18:50.516Z,25.00
2018-04-12T01:21:17.985Z,23.70
2018-04-12T01:23:45.460Z,25.10
2018-04-12T01:26:12.935Z,24.63
2018-04-12T01:28:41.179Z,25.03
2018-04-12T01:31:08.650Z,25.40
2018-04-12T01:33:36.116Z,25.53
2018-04-12T01:36:03.595Z,25.17
2018-04-12T01:38:31.038Z,25.30
2018-04-12T01:40:58.489Z,25.93
2018-04-12T01:43:25.991Z,25.97
2018-04-12T01:45:54.204Z,24.47
2018-04-12T01:48:21.682Z,25.97
2018-04-12T01:50:49.161Z,26.00
2018-04-12T01:53:16.667Z,25.77
2018-04-12T01:55:44.096Z,25.37
2018-04-12T01:58:11.605Z,25.13
2018-04-12T02:00:39.053Z,26.03
2018-04-12T02:03:07.285Z,25.43
2018-04-12T02:05:34.770Z,25.20
2018-04-12T02:08:02.240Z,25.27
2018-04-12T02:10:29.720Z,24.80
2018-04-12T02:12:57.967Z,25.90
2018-04-12T02:15:25.434Z,24.93
2018-04-12T02:17:52.887Z,26.60
2018-04-12T02:20:20.354Z,26.37
2018-04-12T02:22:47.808Z,27.23
2018-04-12T02:25:15.271Z,26.30
2018-04-12T02:27:42.728Z,25.17
2018-04-12T02:30:10.176Z,25.90
2018-04-12T02:32:37.640Z,26.20
2018-04-12T02:35:05.129Z,26.10
2018-04-12T02:37:32.565Z,26.20
2018-04-12T02:40:00.027Z,25.53
2018-04-12T02:42:27.490Z,26.17
2018-04-12T02:44:54.944Z,26.63
2018-04-12T02:47:22.428Z,25.87
2018-04-12T02:49:49.905Z,25.50
2018-04-12T02:52:17.387Z,26.30
2018-04-12T02:54:44.867Z,25.33
2018-04-12T02:57:13.121Z,26.40
2018-04-12T02:59:40.590Z,25.80
2018-04-12T03:02:08.064Z,27.23
2018-04-12T03:04:36.307Z,26.60
2018-04-12T03:07:03.774Z,25.50
2018-04-12T03:09:31.246Z,26.37
2018-04-12T03:11:58.700Z,27.17
2018-04-12T03:14:26.171Z,25.33
2018-04-12T03:16:53.655Z,26.70
2018-04-12T03:19:21.129Z,26.57
2018-04-12T03:21:49.361Z,26.00
2018-04-12T03:24:16.834Z,26.90
2018-04-12T03:26:44.305Z,25.93
2018-04-12T03:29:11.774Z,25.03
2018-04-12T03:31:39.252Z,25.77
2018-04-12T03:34:06.706Z,26.30
2018-04-12T03:36:34.179Z,25.57
2018-04-12T03:39:01.627Z,26.07
2018-04-12T03:41:29.096Z,25.13
2018-04-12T03:43:56.539Z,25.93
2018-04-12T03:46:24.077Z,27.07
2018-04-12T03:48:51.528Z,26.20
2018-04-12T03:51:18.993Z,25.00
2018-04-12T03:53:46.507Z,24.90
2018-04-12T03:56:13.966Z,24.43
2018-04-12T03:58:41.425Z,24.90
2018-04-12T04:01:08.884Z,26.33
2018-04-12T04:03:36.393Z,25.63
2018-04-12T04:06:04.608Z,25.63
2018-04-12T04:08:32.061Z,26.50
2018-04-12T04:10:59.521Z,25.17
2018-04-12T04:13:26.986Z,24.83
2018-04-12T04:16:06.284Z,26.07
2018-04-12T04:18:46.346Z,26.53
2018-04-12T04:21:15.739Z,24.70
2018-04-12T04:23:43.979Z,25.43
2018-04-12T04:26:11.429Z,24.33
2018-04-12T04:28:39.640Z,26.00
2018-04-12T04:31:07.104Z,24.80
2018-04-12T04:33:34.565Z,24.83
2018-04-12T04:36:02.023Z,25.10
2018-04-12T04:38:29.481Z,23.77
2018-04-12T04:40:56.950Z,24.67
2018-04-12T04:43:24.404Z,24.73
2018-04-12T04:45:51.895Z,24.93
2018-04-12T04:48:19.408Z,22.90
2018-04-12T04:50:46.801Z,22.83
2018-04-12T04:53:14.285Z,23.73
2018-04-12T04:55:42.503Z,23.80
2018-04-12T04:58:09.957Z,24.33
2018-04-12T05:00:37.410Z,23.27
2018-04-12T05:03:05.644Z,25.10
2018-04-12T05:05:33.109Z,25.07
2018-04-12T05:08:00.576Z,23.83
2018-04-12T05:10:28.031Z,24.67
2018-04-12T05:12:55.488Z,24.27
2018-04-12T05:15:22.966Z,25.43
2018-04-12T05:17:50.428Z,25.30
2018-04-12T05:20:17.901Z,25.93
2018-04-12T05:22:45.329Z,25.03
2018-04-12T05:25:12.801Z,25.87
2018-04-12T05:27:40.267Z,27.73
2018-04-12T05:30:07.740Z,26.43
2018-04-12T05:32:35.186Z,26.87
2018-04-12T05:35:03.381Z,27.37
2018-04-12T05:37:30.846Z,24.53
2018-04-12T05:39:58.291Z,25.57
2018-04-12T05:42:25.741Z,26.07
2018-04-12T05:44:53.168Z,25.27
2018-04-12T05:47:20.635Z,26.33
2018-04-12T05:49:48.072Z,26.17
2018-04-12T05:52:16.328Z,26.60
2018-04-12T05:54:43.786Z,26.03
2018-04-12T05:57:11.248Z,28.10
2018-04-12T05:59:38.699Z,25.60
2018-04-12T06:02:06.162Z,26.43
2018-04-12T06:04:33.625Z,26.20
2018-04-12T06:07:01.107Z,24.80
2018-04-12T06:09:28.587Z,26.00
2018-04-12T06:11:56.049Z,26.73
2018-04-12T06:14:23.499Z,26.23
2018-04-12T06:16:50.946Z,26.70
2018-04-12T06:19:19.195Z,26.53
2018-04-12T06:21:46.621Z,25.80
2018-04-12T06:24:14.876Z,26.20
2018-04-12T06:26:42.341Z,25.97
2018-04-12T06:29:09.870Z,26.53
2018-04-12T06:31:37.739Z,26.47
2018-04-12T06:34:05.175Z,25.67
2018-04-12T06:36:33.393Z,25.40
2018-04-12T06:39:00.848Z,26.03
2018-04-12T06:41:28.315Z,26.77
2018-04-12T06:43:55.753Z,26.10
2018-04-12T06:46:23.211Z,30.10
2018-04-12T06:48:51.481Z,28.83
2018-04-12T06:51:18.949Z,28.57
2018-04-12T06:53:47.187Z,28.63
2018-04-12T06:56:14.635Z,30.03
2018-04-12T06:58:42.850Z,30.57
2018-04-12T07:01:10.307Z,31.57
2018-04-12T07:03:37.770Z,32.47
2018-04-12T07:06:05.223Z,31.50
2018-04-12T07:08:32.697Z,31.83
2018-04-12T07:11:00.153Z,31.17
2018-04-12T07:13:27.620Z,31.53
2018-04-12T07:15:55.048Z,30.20
2018-04-12T07:18:22.492Z,30.77
2018-04-12T07:20:49.961Z,30.27
2018-04-12T07:23:17.434Z,27.93
2018-04-12T07:25:44.886Z,28.63
2018-04-12T07:28:12.355Z,26.37
2018-04-12T07:30:39.804Z,28.63
2018-04-12T07:33:07.237Z,26.70
2018-04-12T07:35:35.456Z,27.33
2018-04-12T07:38:02.934Z,25.97
2018-04-12T07:40:30.393Z,26.17
2018-04-12T07:42:57.848Z,27.00
2018-04-12T07:45:25.309Z,27.17
2018-04-12T07:47:52.772Z,26.70
2018-04-12T07:50:20.246Z,26.50
2018-04-12T07:52:47.713Z,26.23
2018-04-12T07:55:15.179Z,26.90
2018-04-12T07:57:42.651Z,26.83
2018-04-12T08:00:10.102Z,27.43
2018-04-12T08:02:37.570Z,27.87
2018-04-12T08:05:05.032Z,27.93
2018-04-12T08:07:32.480Z,28.20
2018-04-12T08:09:59.927Z,26.20
2018-04-12T08:12:28.159Z,28.23
2018-04-12T08:14:55.605Z,27.50
2018-04-12T08:17:23.100Z,28.53
2018-04-12T08:19:50.558Z,28.00
2018-04-12T08:22:18.017Z,29.30
2018-04-12T08:24:45.483Z,28.50
2018-04-12T08:27:12.954Z,27.90
2018-04-12T08:29:40.401Z,26.53
2018-04-12T08:32:07.873Z,28.93
2018-04-12T08:34:36.173Z,28.30
2018-04-12T08:37:03.600Z,27.97
2018-04-12T08:39:31.065Z,28.40
2018-04-12T08:41:58.527Z,28.67
2018-04-12T08:44:26.076Z,28.20
2018-04-12T08:46:53.529Z,27.83
2018-04-12T08:49:20.983Z,29.77
2018-04-12T08:51:48.485Z,30.30
2018-04-12T08:54:15.940Z,29.00
2018-04-12T08:56:43.398Z,30.23
2018-04-12T08:59:10.851Z,30.17
2018-04-12T09:01:38.298Z,29.13
2018-04-12T09:04:06.518Z,30.13
2018-04-12T09:06:33.991Z,28.37
2018-04-12T09:09:01.428Z,29.23
2018-04-12T09:11:28.893Z,29.77
2018-04-12T09:13:56.376Z,30.47
2018-04-12T09:16:23.830Z,28.43
2018-04-12T09:18:51.284Z,30.03
2018-04-12T09:21:18.810Z,28.77
2018-04-12T09:23:46.271Z,31.03
2018-04-12T09:26:13.777Z,29.80
2018-04-12T09:28:41.230Z,31.33
2018-04-12T09:31:08.683Z,29.33
2018-04-12T09:33:36.147Z,31.13
2018-04-12T09:36:03.598Z,30.53
2018-04-12T09:38:31.059Z,30.60
2018-04-12T09:40:58.522Z,29.83
2018-04-12T09:43:25.990Z,32.03
2018-04-12T09:45:53.463Z,31.93
2018-04-12T09:48:20.918Z,31.30
2018-04-12T09:50:48.381Z,30.80
2018-04-12T09:53:15.860Z,30.60
2018-04-12T09:55:43.361Z,31.00
2018-04-12T09:58:11.569Z,30.90
2018-04-12T10:00:39.050Z,32.53
2018-04-12T10:03:12.580Z,30.53
2018-04-12T10:05:40.039Z,30.63
2018-04-12T10:08:13.098Z,31.30
2018-04-12T10:10:40.575Z,30.80
2018-04-12T10:13:08.036Z,30.40
2018-04-12T10:15:35.478Z,30.07
2018-04-12T10:18:02.942Z,29.63
2018-04-12T10:20:30.396Z,29.43
2018-04-12T10:22:57.869Z,29.10
2018-04-12T10:25:25.341Z,28.17
2018-04-12T10:27:52.796Z,31.30
2018-04-12T10:30:21.026Z,29.07
2018-04-12T10:32:48.538Z,29.57
2018-04-12T10:35:15.940Z,28.43
2018-04-12T10:37:43.394Z,28.97
2018-04-12T10:40:12.362Z,29.77
2018-04-12T10:42:39.852Z,28.83
2018-04-12T10:45:07.306Z,28.43
2018-04-12T10:47:34.774Z,27.37
2018-04-12T10:50:02.243Z,28.90
2018-04-12T10:52:29.701Z,28.00
2018-04-12T10:54:57.163Z,26.37
2018-04-12T10:57:24.642Z,28.93
2018-04-12T10:59:52.089Z,28.27
2018-04-12T11:02:19.555Z,29.30
2018-04-12T11:04:47.004Z,29.77
2018-04-12T11:07:14.471Z,28.00
2018-04-12T11:09:41.916Z,26.83
2018-04-12T11:12:09.391Z,29.53
2018-04-12T11:14:36.842Z,28.93
2018-04-12T11:17:04.291Z,28.60
2018-04-12T11:19:31.759Z,28.33
2018-04-12T11:21:59.204Z,28.13
2018-04-12T11:24:26.682Z,27.87
2018-04-12T11:26:54.114Z,28.80
2018-04-12T11:29:22.419Z,30.53
2018-04-12T11:31:49.784Z,28.53
2018-04-12T11:34:17.304Z,28.70
2018-04-12T11:36:44.733Z,28.37
2018-04-12T11:39:12.181Z,30.17
2018-04-12T11:41:39.640Z,28.87
2018-04-12T11:44:07.113Z,29.33
2018-04-12T11:46:35.320Z,27.53
2018-04-12T11:49:03.184Z,27.33
2018-04-12T11:51:30.641Z,29.67
2018-04-12T11:53:58.110Z,30.03
2018-04-12T11:56:25.572Z,28.27
2018-04-12T11:58:53.017Z,30.50
2018-04-12T12:01:20.497Z,30.03
2018-04-12T12:03:47.937Z,30.10
2018-04-12T12:06:15.392Z,31.37
2018-04-12T12:08:42.851Z,29.37
2018-04-12T12:11:10.307Z,29.63
2018-04-12T12:13:37.776Z,30.47
2018-04-12T12:16:05.256Z,29.37
2018-04-12T12:18:32.708Z,29.57
2018-04-12T12:21:00.219Z,31.40
2018-04-12T12:23:28.467Z,31.40
2018-04-12T12:25:55.931Z,29.97
2018-04-12T12:28:23.436Z,30.07
2018-04-12T12:30:50.894Z,29.80
2018-04-12T12:33:18.340Z,31.30
2018-04-12T12:35:45.803Z,29.87
2018-04-12T12:38:13.265Z,29.03
2018-04-12T12:40:40.717Z,30.00
2018-04-12T12:43:08.182Z,30.23
2018-04-12T12:45:35.634Z,28.33
2018-04-12T12:48:03.089Z,29.50
2018-04-12T12:50:30.549Z,28.53
2018-04-12T12:52:57.990Z,31.57
2018-04-12T12:55:25.459Z,30.00
2018-04-12T12:57:52.917Z,30.40
2018-04-12T13:00:20.434Z,30.20
2018-04-12T13:02:47.901Z,28.57
2018-04-12T13:05:15.410Z,30.07
2018-04-12T13:07:42.845Z,30.23
2018-04-12T13:10:11.100Z,29.17
2018-04-12T13:12:38.562Z,28.97
2018-04-12T13:15:06.025Z,32.70
2018-04-12T13:17:34.417Z,30.23
2018-04-12T13:20:01.870Z,30.67
2018-04-12T13:22:29.351Z,30.97
2018-04-12T13:24:56.829Z,30.60
2018-04-12T13:27:24.259Z,28.07
2018-04-12T13:29:51.724Z,28.80
2018-04-12T13:32:19.181Z,29.63
2018-04-12T13:34:46.649Z,29.13
2018-04-12T13:37:14.105Z,28.17
2018-04-12T13:39:41.600Z,28.33
2018-04-12T13:42:09.097Z,28.23
2018-04-12T13:44:36.542Z,28.37
2018-04-12T13:47:04.006Z,27.33
2018-04-12T13:49:31.467Z,29.07
2018-04-12T13:51:59.698Z,27.27
2018-04-12T13:54:27.159Z,26.47
2018-04-12T13:56:54.629Z,27.47
2018-04-12T13:59:22.098Z,27.07
2018-04-12T14:01:49.569Z,27.80
2018-04-12T14:04:17.035Z,28.10
2018-04-12T14:06:44.506Z,26.17
2018-04-12T14:09:11.985Z,28.47
2018-04-12T14:11:40.201Z,28.47
2018-04-12T14:14:07.676Z,27.00
2018-04-12T14:16:35.153Z,28.20
2018-04-12T14:19:02.593Z,30.17
2018-04-12T14:21:30.089Z,27.30
2018-04-12T14:23:57.549Z,27.80
2018-04-12T14:26:26.520Z,26.10
2018-04-12T14:28:53.993Z,26.80
2018-04-12T14:31:21.454Z,28.40
2018-04-12T14:33:48.893Z,29.77
2018-04-12T14:36:16.377Z,27.20
2018-04-12T14:38:43.807Z,29.50
2018-04-12T14:41:11.279Z,27.93
2018-04-12T14:43:38.735Z,27.60
2018-04-12T14:46:06.208Z,28.27
2018-04-12T14:48:33.677Z,27.97
2018-04-12T14:51:01.897Z,27.10
2018-04-12T14:53:29.373Z,26.90
2018-04-12T14:55:56.831Z,26.77
2018-04-12T14:58:25.073Z,26.60
2018-04-12T15:00:52.538Z,26.43
2018-04-12T15:03:19.999Z,27.57
2018-04-12T15:05:47.669Z,27.07
2018-04-12T15:08:15.153Z,27.17
2018-04-12T15:10:42.637Z,27.57
2018-04-12T15:13:10.863Z,27.50
2018-04-12T15:15:38.327Z,27.53
2018-04-12T15:18:05.797Z,28.33
2018-04-12T15:20:33.253Z,28.03
2018-04-12T15:23:00.704Z,28.27
2018-04-12T15:25:28.183Z,27.47
2018-04-12T15:27:55.623Z,26.70
2018-04-12T15:30:23.082Z,26.17
2018-04-12T15:32:50.529Z,27.97
2018-04-12T15:35:18.011Z,27.00
2018-04-12T15:37:45.473Z,28.33
2018-04-12T15:40:12.923Z,26.73
2018-04-12T15:42:40.364Z,28.83
2018-04-12T15:45:08.577Z,27.83
2018-04-12T15:47:36.039Z,27.67
2018-04-12T15:50:03.487Z,27.40
2018-04-12T15:52:30.934Z,27.50
2018-04-12T15:54:58.453Z,28.93
2018-04-12T15:57:26.606Z,28.37
2018-04-12T15:59:54.072Z,29.83
2018-04-12T16:02:21.542Z,27.67
2018-04-12T16:04:49.061Z,28.53
2018-04-12T16:07:16.511Z,28.60
2018-04-12T16:09:44.001Z,29.43
2018-04-12T16:12:12.317Z,29.40
2018-04-12T16:14:39.772Z,28.13
2018-04-12T16:17:07.238Z,26.40
2018-04-12T16:19:34.695Z,30.37
2018-04-12T16:22:02.170Z,29.33
2018-04-12T16:24:29.601Z,27.27
2018-04-12T16:26:57.067Z,29.00
2018-04-12T16:29:25.055Z,27.23
2018-04-12T16:31:52.531Z,27.20
2018-04-12T16:34:21.460Z,29.83
2018-04-12T16:36:48.931Z,29.70
2018-04-12T16:39:16.392Z,28.80
2018-04-12T16:44:54.082Z,27.70
2018-04-12T16:47:21.558Z,30.03
2018-04-12T16:49:49.015Z,27.50
2018-04-12T16:52:16.485Z,27.40
2018-04-12T16:54:45.731Z,31.17
2018-04-12T16:57:13.198Z,29.60
2018-04-12T16:59:40.674Z,29.43
2018-04-12T17:02:08.150Z,28.20
2018-04-12T17:04:35.606Z,29.53
2018-04-12T17:07:03.066Z,31.17
2018-04-12T17:09:30.513Z,29.77
2018-04-12T17:11:57.973Z,29.37
2018-04-12T17:14:25.436Z,29.30
2018-04-12T17:16:52.915Z,30.23
2018-04-12T17:19:20.403Z,29.50
2018-04-12T17:21:47.852Z,29.03
2018-04-12T17:24:15.435Z,29.20
2018-04-12T17:32:51.382Z,29.93
2018-04-12T17:35:20.403Z,28.87
2018-04-12T17:37:47.968Z,30.53
2018-04-12T17:40:15.514Z,30.07
2018-04-12T17:42:43.078Z,29.77
2018-04-12T17:45:11.349Z,28.93
2018-04-12T17:47:42.225Z,30.23
2018-04-12T17:50:12.219Z,29.03
2018-04-12T17:52:39.762Z,30.77
2018-04-12T17:55:07.220Z,31.03
2018-04-12T17:57:34.694Z,29.60
2018-04-12T18:00:02.150Z,28.23
2018-04-12T18:02:36.689Z,27.93
2018-04-12T18:05:04.937Z,29.07
2018-04-12T18:07:32.392Z,27.97
2018-04-12T18:09:59.871Z,28.37
2018-04-12T18:12:27.334Z,29.60
2018-04-12T18:14:55.558Z,27.67
2018-04-12T18:17:25.128Z,29.03
2018-04-12T18:19:52.941Z,29.03
2018-04-12T18:22:20.568Z,31.13
2018-04-12T18:24:48.332Z,30.10
2018-04-12T18:27:17.010Z,31.33
2018-04-12T18:29:47.684Z,30.67
2018-04-12T18:32:15.222Z,28.17
2018-04-12T18:34:42.693Z,31.10
2018-04-12T18:37:10.158Z,31.50
2018-04-12T18:39:37.622Z,28.87
2018-04-12T18:42:05.108Z,31.73
2018-04-12T18:44:33.343Z,30.83
2018-04-12T18:47:00.803Z,31.30
2018-04-12T18:49:28.285Z,30.77
2018-04-12T18:51:55.743Z,30.47
2018-04-12T18:54:23.218Z,32.53
2018-04-12T18:56:51.459Z,32.63
2018-04-12T18:59:18.956Z,29.53
2018-04-12T19:01:46.378Z,32.30
2018-04-12T19:04:14.604Z,32.87
2018-04-12T19:06:42.105Z,31.37
2018-04-12T19:09:09.564Z,30.13
2018-04-12T19:11:37.791Z,27.33
2018-04-12T19:14:05.251Z,29.37
2018-04-12T19:16:32.728Z,28.93
2018-04-12T19:19:01.111Z,29.73
2018-04-12T19:21:28.574Z,31.47
2018-04-12T19:23:56.066Z,27.90
2018-04-12T19:26:24.291Z,28.40
2018-04-12T19:28:51.796Z,27.03
2018-04-12T19:31:20.019Z,31.87
2018-04-12T19:33:47.485Z,27.87
2018-04-12T19:36:15.740Z,30.93
2018-04-12T19:38:43.187Z,26.80
2018-04-12T19:41:11.423Z,26.67
2018-04-12T19:43:38.901Z,26.93
2018-04-12T19:46:06.355Z,27.67
2018-04-12T19:48:33.820Z,27.87
2018-04-12T19:51:01.296Z,27.23
2018-04-12T19:53:28.756Z,27.23
2018-04-12T19:55:56.233Z,27.97
2018-04-12T19:58:24.452Z,26.43
2018-04-12T20:00:51.948Z,27.00
2018-04-12T20:03:19.415Z,25.73
2018-04-12T20:05:46.858Z,26.73
2018-04-12T20:08:14.328Z,29.53
2018-04-12T20:10:41.797Z,26.63
2018-04-12T20:13:09.260Z,28.07
2018-04-12T20:15:36.720Z,26.93
2018-04-12T20:18:04.180Z,27.03
2018-04-12T20:20:31.637Z,29.83
2018-04-12T20:22:59.106Z,27.20
2018-04-12T20:25:26.604Z,26.50
2018-04-12T20:27:54.822Z,28.43
2018-04-12T20:30:22.312Z,28.20
2018-04-12T20:32:49.794Z,27.53
2018-04-12T20:35:17.271Z,27.27
2018-04-12T20:37:44.741Z,29.20
2018-04-12T20:40:12.962Z,26.73
2018-04-12T20:42:40.411Z,28.20
2018-04-12T20:45:08.659Z,27.47
2018-04-12T20:47:36.111Z,26.53
2018-04-12T20:50:03.571Z,26.87
2018-04-12T20:52:31.021Z,28.20
2018-04-12T20:54:58.563Z,27.87
2018-04-12T20:57:26.029Z,28.07
2018-04-12T20:59:53.497Z,26.57
2018-04-12T21:02:20.956Z,28.50
2018-04-12T21:04:48.409Z,25.37
2018-04-12T21:07:15.883Z,25.37
2018-04-12T21:09:43.344Z,26.70
2018-04-12T21:12:10.805Z,25.63
2018-04-12T21:14:38.250Z,26.40
2018-04-12T21:17:06.468Z,30.83
2018-04-12T21:19:33.925Z,26.27
2018-04-12T21:22:01.377Z,29.93
2018-04-12T21:24:28.837Z,26.63
2018-04-12T21:26:56.298Z,29.20
2018-04-12T21:29:24.523Z,28.23
2018-04-12T21:31:53.563Z,29.47
2018-04-12T21:34:21.082Z,26.67
2018-04-12T21:36:49.322Z,29.90
2018-04-12T21:39:16.778Z,29.30
2018-04-12T21:41:44.520Z,30.53
2018-04-12T21:44:12.737Z,24.83
2018-04-12T21:46:40.191Z,28.80
2018-04-12T21:49:07.659Z,25.33
2018-04-12T21:51:36.067Z,30.33
2018-04-12T21:54:03.516Z,30.20
2018-04-12T21:56:30.972Z,25.37
2018-04-12T21:58:58.514Z,26.30
2018-04-12T22:01:25.972Z,25.37
2018-04-12T22:03:53.475Z,25.57
2018-04-12T22:06:20.958Z,27.03
2018-04-12T22:08:48.426Z,27.83
2018-04-12T22:11:15.885Z,23.97
2018-04-12T22:13:43.342Z,26.03
2018-04-12T22:16:10.813Z,25.73
2018-04-12T22:18:38.254Z,25.33
2018-04-12T22:21:05.718Z,26.63
2018-04-12T22:23:33.171Z,28.47
2018-04-12T22:26:00.636Z,26.37
2018-04-12T22:28:28.077Z,25.87
2018-04-12T22:30:55.556Z,25.93
2018-04-12T22:33:23.031Z,25.60
2018-04-12T22:35:50.482Z,24.63
2018-04-12T22:38:17.925Z,24.80
2018-04-12T22:40:45.391Z,24.97
2018-04-12T22:43:12.843Z,25.80
2018-04-12T22:45:40.307Z,25.60
2018-04-12T22:48:07.774Z,24.80
2018-04-12T22:50:35.222Z,24.13
2018-04-12T22:53:02.720Z,25.57
2018-04-12T22:55:30.189Z,26.53
2018-04-12T22:57:57.677Z,26.77
2018-04-12T23:00:25.141Z,25.47
2018-04-12T23:02:52.586Z,24.47
2018-04-12T23:05:20.076Z,24.73
2018-04-12T23:07:48.294Z,25.47
2018-04-12T23:10:15.766Z,26.20
2018-04-12T23:12:43.211Z,25.03
2018-04-12T23:15:10.673Z,24.00
2018-04-12T23:17:38.137Z,23.43
2018-04-12T23:20:05.600Z,24.93
2018-04-12T23:22:33.065Z,24.30
2018-04-12T23:25:00.537Z,22.93
2018-04-12T23:27:27.993Z,24.07
2018-04-12T23:29:55.450Z,24.67
2018-04-12T23:32:22.921Z,24.23
2018-04-12T23:34:50.354Z,23.87
2018-04-12T23:37:18.580Z,26.10
2018-04-12T23:39:46.059Z,24.00
2018-04-12T23:42:13.517Z,24.73
2018-04-12T23:44:41.015Z,24.93
2018-04-12T23:47:09.259Z,26.90
2018-04-12T23:49:36.701Z,25.27
2018-04-12T23:52:04.162Z,25.27
2018-04-12T23:54:31.615Z,29.43
2018-04-12T23:56:59.082Z,26.23
2018-04-12T23:59:26.536Z,26.77
